createdAt,value
2023-04-18T00:01:44.700Z,4.20
2023-04-18T00:04:12.210Z,4.00
2023-04-18T00:06:39.340Z,4.30
2023-04-18T00:09:06.154Z,4.30
2023-04-18T00:11:32.863Z,4.30
2023-04-18T00:13:59.510Z,4.10
2023-04-18T00:16:27.272Z,4.30
2023-04-18T00:18:54.297Z,4.10
2023-04-18T00:21:22.633Z,4.30
2023-04-18T00:23:49.344Z,4.30
2023-04-18T00:26:15.971Z,4.20
2023-04-18T00:28:42.654Z,4.30
2023-04-18T00:31:09.385Z,4.50
2023-04-18T00:33:36.060Z,4.40
2023-04-18T00:36:03.396Z,4.40
2023-04-18T00:38:30.159Z,4.40
2023-04-18T00:40:56.857Z,4.40
2023-04-18T00:43:24.034Z,4.30
2023-04-18T00:45:50.767Z,4.40
2023-04-18T00:48:17.577Z,4.20
2023-04-18T00:50:45.311Z,4.20
2023-04-18T00:53:12.081Z,4.30
2023-04-18T00:55:38.885Z,4.20
2023-04-18T00:58:06.303Z,4.20
2023-04-18T01:00:32.973Z,4.30
2023-04-18T01:02:59.853Z,4.30
2023-04-18T01:05:26.937Z,4.20
2023-04-18T01:07:58.731Z,4.20
2023-04-18T01:10:25.424Z,4.30
2023-04-18T01:13:09.263Z,4.20
2023-04-18T01:15:37.043Z,4.30
2023-04-18T01:18:03.880Z,4.30
2023-04-18T01:20:31.362Z,4.40
2023-04-18T01:22:58.462Z,4.40
2023-04-18T01:25:25.102Z,4.40
2023-04-18T01:27:51.730Z,4.30
2023-04-18T01:30:18.487Z,4.10
2023-04-18T01:32:45.176Z,4.20
2023-04-18T01:35:11.930Z,4.20
2023-04-18T01:37:38.611Z,4.30
2023-04-18T01:40:05.447Z,4.40
2023-04-18T01:42:32.073Z,4.40
2023-04-18T01:44:58.698Z,4.60
2023-04-18T01:47:25.362Z,4.60
2023-04-18T01:49:52.031Z,4.50
2023-04-18T01:52:18.683Z,4.70
2023-04-18T01:54:45.291Z,4.80
2023-04-18T01:57:11.955Z,4.80
2023-04-18T01:59:38.550Z,4.70
2023-04-18T02:02:05.399Z,4.70
2023-04-18T02:04:32.084Z,4.90
2023-04-18T02:06:58.757Z,4.70
2023-04-18T02:09:25.541Z,4.90
2023-04-18T02:11:52.296Z,4.90
2023-04-18T02:14:18.922Z,4.80
2023-04-18T02:16:45.740Z,5.00
2023-04-18T02:19:12.462Z,5.10
2023-04-18T02:21:39.170Z,5.00
2023-04-18T02:24:05.870Z,5.00
2023-04-18T02:26:32.530Z,5.00
2023-04-18T02:28:59.200Z,4.90
2023-04-18T02:31:25.937Z,5.10
2023-04-18T02:33:52.597Z,5.10
2023-04-18T02:36:19.229Z,5.20
2023-04-18T02:38:45.893Z,5.10
2023-04-18T02:41:15.363Z,5.20
2023-04-18T02:43:42.142Z,5.20
2023-04-18T02:46:08.831Z,5.20
2023-04-18T02:48:35.634Z,5.20
2023-04-18T02:51:05.720Z,5.30
2023-04-18T02:53:32.767Z,5.20
2023-04-18T02:55:59.520Z,5.20
2023-04-18T02:58:26.363Z,5.20
2023-04-18T03:00:53.702Z,5.20
2023-04-18T03:03:20.583Z,5.30
2023-04-18T03:05:47.283Z,5.20
2023-04-18T03:08:13.937Z,5.10
2023-04-18T03:10:40.650Z,5.10
2023-04-18T03:13:07.323Z,5.20
2023-04-18T03:15:34.020Z,5.20
2023-04-18T03:18:00.744Z,5.20
2023-04-18T03:20:27.406Z,5.20
2023-04-18T03:22:54.088Z,5.20
2023-04-18T03:25:20.790Z,5.20
2023-04-18T03:27:47.451Z,5.30
2023-04-18T03:30:14.155Z,5.30
2023-04-18T03:32:42.293Z,5.40
2023-04-18T03:35:09.354Z,5.50
2023-04-18T03:37:36.215Z,5.50
2023-04-18T03:40:05.249Z,5.60
2023-04-18T03:42:32.058Z,5.60
2023-04-18T03:44:58.729Z,5.60
2023-04-18T03:47:25.567Z,5.70
2023-04-18T03:49:54.253Z,5.70
2023-04-18T03:52:20.944Z,5.70
2023-04-18T03:54:47.666Z,5.40
2023-04-18T03:57:14.790Z,5.70
2023-04-18T03:59:41.582Z,5.70
2023-04-18T04:02:08.289Z,5.60
2023-04-18T04:04:35.051Z,5.80
2023-04-18T04:07:01.733Z,5.70
2023-04-18T04:09:28.378Z,5.80
2023-04-18T04:11:55.005Z,6.50
2023-04-18T04:14:22.861Z,5.90
2023-04-18T04:16:49.586Z,5.70
2023-04-18T04:19:16.345Z,5.80
2023-04-18T04:21:42.995Z,5.70
2023-04-18T04:24:09.648Z,5.80
2023-04-18T04:26:36.325Z,5.80
2023-04-18T04:29:03.654Z,5.90
2023-04-18T04:31:30.322Z,5.80
2023-04-18T04:33:56.966Z,5.90
2023-04-18T04:36:24.739Z,5.90
2023-04-18T04:38:52.299Z,5.90
2023-04-18T04:41:19.017Z,5.80
2023-04-18T04:43:47.041Z,5.90
2023-04-18T04:46:14.748Z,5.80
2023-04-18T04:48:42.225Z,6.10
2023-04-18T04:51:08.890Z,6.00
2023-04-18T04:53:35.643Z,6.10
2023-04-18T04:56:02.786Z,6.20
2023-04-18T04:58:29.446Z,6.10
2023-04-18T05:00:56.501Z,6.10
2023-04-18T05:03:23.417Z,6.20
2023-04-18T05:05:50.212Z,6.20
2023-04-18T05:08:16.805Z,6.30
2023-04-18T05:10:43.579Z,6.30
2023-04-18T05:13:10.285Z,6.30
2023-04-18T05:15:37.005Z,6.00
2023-04-18T05:18:03.769Z,6.20
2023-04-18T05:20:30.452Z,6.40
2023-04-18T05:22:57.091Z,6.50
2023-04-18T05:25:23.998Z,6.40
2023-04-18T05:27:51.001Z,6.50
2023-04-18T05:30:17.730Z,6.40
2023-04-18T05:32:44.497Z,6.30
2023-04-18T05:35:11.176Z,6.30
2023-04-18T05:37:37.797Z,8.00
2023-04-18T05:40:05.052Z,6.50
2023-04-18T05:42:31.690Z,6.60
2023-04-18T05:44:58.435Z,6.60
2023-04-18T05:47:26.942Z,6.50
2023-04-18T05:49:54.074Z,6.90
2023-04-18T05:52:20.898Z,7.00
2023-04-18T05:54:47.551Z,6.90
2023-04-18T05:57:14.190Z,6.80
2023-04-18T05:59:40.848Z,6.90
2023-04-18T06:02:13.244Z,7.80
2023-04-18T06:04:43.318Z,8.30
2023-04-18T06:07:10.115Z,8.60
2023-04-18T06:09:36.876Z,8.70
2023-04-18T06:12:03.847Z,8.90
2023-04-18T06:14:30.592Z,9.10
2023-04-18T06:16:57.273Z,9.20
2023-04-18T06:19:23.925Z,9.30
2023-04-18T06:21:50.790Z,9.30
2023-04-18T06:24:17.534Z,9.30
2023-04-18T06:26:44.256Z,8.60
2023-04-18T06:29:11.230Z,8.60
2023-04-18T06:31:37.866Z,8.20
2023-04-18T06:34:04.559Z,8.00
2023-04-18T06:36:31.801Z,8.20
2023-04-18T06:38:58.596Z,9.10
2023-04-18T06:41:25.181Z,8.20
2023-04-18T06:44:14.693Z,8.50
2023-04-18T06:46:41.096Z,8.50
2023-04-18T06:49:13.188Z,8.40
2023-04-18T06:51:39.847Z,8.50
2023-04-18T06:54:06.442Z,8.50
2023-04-18T06:56:35.875Z,8.60
2023-04-18T06:59:03.205Z,8.60
2023-04-18T07:01:32.107Z,8.80
2023-04-18T07:03:58.913Z,8.70
2023-04-18T07:06:26.241Z,9.00
2023-04-18T07:08:54.539Z,9.30
2023-04-18T07:11:21.448Z,8.80
2023-04-18T07:13:48.746Z,9.30
2023-04-18T07:16:15.970Z,9.30
2023-04-18T07:18:46.110Z,9.40
2023-04-18T07:21:18.396Z,9.40
2023-04-18T07:23:52.160Z,9.50
2023-04-18T07:29:14.460Z,9.50
2023-04-18T07:31:41.107Z,9.50
2023-04-18T07:34:09.032Z,9.60
2023-04-18T07:36:36.300Z,9.80
2023-04-18T07:39:03.125Z,10.10
2023-04-18T07:41:29.851Z,11.10
2023-04-18T07:43:56.490Z,10.70
2023-04-18T07:46:23.336Z,10.80
2023-04-18T07:48:50.445Z,11.00
2023-04-18T07:51:17.074Z,11.30
2023-04-18T07:53:43.791Z,11.30
2023-04-18T07:56:12.501Z,11.10
2023-04-18T07:58:39.125Z,11.20
2023-04-18T08:01:07.057Z,11.40
2023-04-18T08:03:36.605Z,11.40
2023-04-18T08:06:03.518Z,12.60
2023-04-18T08:08:30.185Z,11.30
2023-04-18T08:10:56.893Z,11.20
2023-04-18T08:13:23.610Z,10.90
2023-04-18T08:15:50.313Z,11.70
2023-04-18T08:20:47.157Z,12.50
2023-04-18T08:23:13.832Z,13.00
2023-04-18T08:25:40.792Z,12.50
2023-04-18T08:28:07.460Z,13.10
2023-04-18T08:30:34.338Z,11.10
2023-04-18T08:33:01.467Z,12.30
2023-04-18T08:35:28.303Z,10.50
2023-04-18T08:37:54.949Z,10.60
2023-04-18T08:40:21.727Z,11.60
2023-04-18T08:42:49.250Z,11.90
2023-04-18T08:45:15.963Z,11.50
2023-04-18T08:47:42.841Z,12.80
2023-04-18T08:50:10.205Z,13.30
2023-04-18T08:55:13.242Z,14.10
2023-04-18T08:57:39.912Z,14.10
2023-04-18T09:07:36.260Z,14.30
2023-04-18T09:10:02.926Z,13.80
2023-04-18T09:12:29.713Z,13.70
2023-04-18T09:14:57.943Z,14.10
2023-04-18T09:17:32.587Z,13.10
2023-04-18T09:19:59.906Z,12.90
2023-04-18T09:22:27.178Z,12.70
2023-04-18T09:24:57.359Z,12.40
2023-04-18T09:27:24.355Z,12.20
2023-04-18T09:29:52.056Z,12.30
2023-04-18T09:32:25.016Z,12.50
2023-04-18T09:34:54.339Z,12.50
2023-04-18T09:37:21.699Z,12.70
2023-04-18T09:39:48.381Z,13.40
2023-04-18T09:42:14.956Z,12.80
2023-04-18T09:45:00.438Z,12.90
2023-04-18T09:47:28.035Z,13.00
2023-04-18T09:49:55.455Z,12.90
2023-04-18T09:52:24.206Z,12.90
2023-04-18T09:54:54.932Z,12.90
2023-04-18T09:57:22.080Z,12.90
2023-04-18T09:59:54.864Z,12.60
2023-04-18T10:02:22.566Z,12.70
2023-04-18T10:04:50.478Z,12.70
2023-04-18T10:07:17.643Z,12.90
2023-04-18T10:09:47.954Z,13.20
2023-04-18T10:12:14.668Z,13.60
2023-04-18T10:14:42.906Z,14.00
2023-04-18T10:17:10.241Z,14.20
2023-04-18T10:19:37.808Z,14.10
2023-04-18T10:22:04.400Z,14.20
2023-04-18T10:24:52.974Z,14.60
2023-04-18T10:29:50.679Z,15.30
2023-04-18T10:34:49.428Z,15.30
2023-04-18T10:37:21.045Z,15.10
2023-04-18T10:40:02.904Z,14.80
2023-04-18T10:42:48.561Z,14.60
2023-04-18T10:45:19.512Z,14.30
2023-04-18T10:47:48.758Z,14.00
2023-04-18T10:50:15.992Z,14.60
2023-04-18T10:52:43.609Z,15.00
2023-04-18T10:55:10.873Z,15.00
2023-04-18T10:57:38.826Z,15.30
2023-04-18T11:00:08.626Z,15.70
2023-04-18T11:02:36.189Z,15.10
2023-04-18T11:05:06.669Z,15.50
2023-04-18T11:07:48.768Z,14.00
2023-04-18T11:10:22.959Z,14.70
2023-04-18T11:12:50.232Z,14.80
2023-04-18T11:15:26.285Z,16.30
2023-04-18T11:18:01.069Z,15.90
2023-04-18T11:20:31.705Z,15.10
2023-04-18T11:25:32.398Z,15.60
2023-04-18T11:32:54.171Z,18.00
2023-04-18T11:35:21.361Z,18.60
2023-04-18T11:42:44.161Z,19.10
2023-04-18T11:45:12.451Z,19.60
2023-04-18T11:47:39.655Z,18.00
2023-04-18T11:50:08.225Z,18.90
2023-04-18T11:52:43.104Z,18.70
2023-04-18T11:55:14.521Z,18.10
2023-04-18T11:57:41.961Z,18.70
2023-04-18T12:05:30.817Z,19.60
2023-04-18T12:11:03.613Z,20.30
2023-04-18T12:16:46.788Z,18.70
2023-04-18T12:19:17.353Z,19.90
2023-04-18T12:21:59.034Z,18.30
2023-04-18T12:24:27.456Z,17.80
2023-04-18T12:26:54.310Z,18.60
2023-04-18T12:29:21.369Z,18.50
2023-04-18T12:37:35.515Z,20.10
2023-04-18T12:40:38.124Z,19.80
2023-04-18T12:43:08.785Z,18.00
2023-04-18T12:45:46.997Z,18.60
2023-04-18T12:56:55.098Z,17.20
2023-04-18T12:59:22.148Z,17.20
2023-04-18T13:01:53.882Z,17.10
2023-04-18T13:06:48.834Z,15.90
2023-04-18T13:09:16.617Z,15.80
2023-04-18T13:11:43.235Z,15.20
2023-04-18T13:16:37.201Z,15.30
2023-04-18T13:19:03.937Z,14.80
2023-04-18T13:21:31.472Z,14.70
2023-04-18T13:24:00.970Z,14.70
2023-04-18T13:26:27.582Z,16.60
2023-04-18T13:28:54.224Z,16.40
2023-04-18T13:33:48.015Z,14.90
2023-04-18T13:36:14.590Z,14.70
2023-04-18T13:41:12.133Z,14.70
2023-04-18T13:43:39.757Z,16.30
2023-04-18T13:46:06.772Z,16.80
2023-04-18T13:48:33.497Z,17.10
2023-04-18T13:51:00.321Z,16.20
2023-04-18T13:53:27.942Z,16.50
2023-04-18T13:58:23.701Z,14.50
2023-04-18T14:00:52.875Z,14.70
2023-04-18T14:03:20.086Z,14.50
2023-04-18T14:05:49.991Z,14.10
2023-04-18T14:08:16.588Z,14.20
2023-04-18T14:10:44.206Z,14.70
2023-04-18T14:13:11.544Z,15.60
2023-04-18T14:15:39.143Z,14.30
2023-04-18T14:18:06.513Z,14.70
2023-04-18T14:20:34.755Z,14.10
2023-04-18T14:25:30.914Z,13.80
2023-04-18T14:30:28.165Z,13.30
2023-04-18T14:32:55.174Z,14.40
2023-04-18T14:35:21.860Z,13.90
2023-04-18T14:37:48.669Z,15.10
2023-04-18T14:40:15.842Z,15.10
2023-04-18T14:42:50.037Z,14.40
2023-04-18T14:45:18.972Z,13.40
2023-04-18T15:14:59.935Z,16.00
2023-04-18T15:17:29.322Z,16.90
2023-04-18T15:22:23.371Z,14.60
2023-04-18T15:24:58.056Z,14.90
2023-04-18T15:27:24.800Z,13.40
2023-04-18T15:32:18.724Z,12.50
2023-04-18T15:34:45.507Z,12.20
2023-04-18T15:37:12.150Z,13.30
2023-04-18T15:39:45.404Z,14.50
2023-04-18T15:42:12.009Z,14.80
2023-04-18T15:44:38.702Z,14.10
2023-04-18T15:47:05.381Z,11.90
2023-04-18T15:49:32.090Z,12.60
2023-04-18T15:51:58.770Z,13.80
2023-04-18T15:56:52.575Z,15.70
2023-04-18T15:59:22.449Z,16.40
2023-04-18T16:01:49.190Z,16.60
2023-04-18T16:04:16.225Z,15.80
2023-04-18T16:06:43.230Z,15.40
2023-04-18T16:09:10.214Z,14.60
2023-04-18T16:11:36.859Z,15.40
2023-04-18T16:16:30.950Z,14.40
2023-04-18T16:18:59.524Z,15.00
2023-04-18T16:21:26.434Z,14.70
2023-04-18T16:23:53.145Z,12.70
2023-04-18T16:26:19.828Z,11.60
2023-04-18T16:28:48.205Z,13.40
2023-04-18T16:33:42.888Z,12.20
2023-04-18T16:38:36.785Z,11.90
2023-04-18T16:41:03.711Z,11.50
2023-04-18T16:43:31.066Z,12.70
2023-04-18T16:45:57.760Z,10.70
2023-04-18T16:48:24.829Z,11.50
2023-04-18T16:50:51.596Z,12.60
2023-04-18T16:53:18.282Z,11.10
2023-04-18T16:55:44.870Z,11.10
2023-04-18T16:58:12.514Z,11.10
2023-04-18T17:00:39.121Z,11.30
2023-04-18T17:03:07.294Z,11.30
2023-04-18T17:05:34.010Z,11.10
2023-04-18T17:08:00.658Z,11.00
2023-04-18T17:12:54.345Z,11.00
2023-04-18T17:15:21.163Z,10.80
2023-04-18T17:17:47.855Z,10.90
2023-04-18T17:20:15.973Z,10.70
2023-04-18T17:22:42.529Z,10.40
2023-04-18T17:25:09.500Z,10.60
2023-04-18T17:27:36.076Z,10.60
2023-04-18T17:30:02.728Z,10.60
2023-04-18T17:32:29.329Z,10.50
2023-04-18T17:34:56.158Z,10.40
2023-04-18T17:37:22.968Z,10.50
2023-04-18T17:39:49.523Z,10.40
2023-04-18T17:44:43.313Z,10.40
2023-04-18T17:47:09.921Z,10.30
2023-04-18T17:49:36.545Z,10.20
2023-04-18T17:52:03.813Z,10.20
2023-04-18T17:56:57.864Z,10.10
2023-04-18T17:59:24.499Z,10.00
2023-04-18T18:04:19.800Z,9.90
2023-04-18T18:09:13.668Z,9.80
2023-04-18T18:11:40.405Z,9.60
2023-04-18T18:14:07.130Z,9.70
2023-04-18T18:16:33.720Z,9.70
2023-04-18T18:21:28.712Z,9.60
2023-04-18T18:23:55.301Z,9.60
2023-04-18T18:26:21.967Z,9.60
2023-04-18T18:28:48.570Z,9.10
2023-04-18T18:31:15.512Z,9.30
2023-04-18T18:33:42.157Z,8.90
2023-04-18T18:36:08.761Z,8.60
2023-04-18T18:38:36.198Z,8.70
2023-04-18T18:41:04.610Z,8.50
2023-04-18T18:43:31.745Z,9.10
2023-04-18T18:45:58.420Z,9.20
2023-04-18T18:48:26.855Z,8.60
2023-04-18T18:50:53.779Z,9.70
2023-04-18T18:53:20.413Z,9.20
2023-04-18T18:55:47.029Z,9.20
2023-04-18T18:58:13.677Z,9.10
2023-04-18T19:00:40.354Z,8.30
2023-04-18T19:03:08.383Z,9.20
2023-04-18T19:05:35.753Z,8.80
2023-04-18T19:08:04.808Z,9.10
2023-04-18T19:10:31.524Z,8.90
2023-04-18T19:13:00.176Z,8.80
2023-04-18T19:15:26.931Z,8.10
2023-04-18T19:17:53.555Z,8.90
2023-04-18T19:20:20.255Z,8.50
2023-04-18T19:22:46.956Z,9.30
2023-04-18T19:25:13.546Z,9.70
2023-04-18T19:27:40.154Z,9.30
2023-04-18T19:30:07.188Z,9.10
2023-04-18T19:32:33.805Z,9.20
2023-04-18T19:35:00.791Z,9.20
2023-04-18T19:37:27.420Z,9.10
2023-04-18T19:39:54.013Z,9.20
2023-04-18T19:42:20.828Z,9.20
2023-04-18T19:44:47.457Z,9.20
2023-04-18T19:47:14.121Z,9.20
2023-04-18T19:49:40.872Z,9.20
2023-04-18T19:52:07.549Z,9.10
2023-04-18T19:54:34.134Z,9.10
2023-04-18T19:57:01.423Z,9.10
2023-04-18T19:59:28.282Z,9.20
2023-04-18T20:01:54.878Z,9.80
2023-04-18T20:04:22.254Z,9.20
2023-04-18T20:06:49.072Z,9.10
2023-04-18T20:09:17.517Z,9.10
2023-04-18T20:11:44.401Z,9.10
2023-04-18T20:14:11.036Z,9.10
2023-04-18T20:16:38.938Z,9.10
2023-04-18T20:19:05.744Z,9.00
2023-04-18T20:21:32.400Z,9.10
2023-04-18T20:23:59.154Z,9.00
2023-04-18T20:26:25.802Z,9.10
2023-04-18T20:28:52.417Z,9.10
2023-04-18T20:31:19.129Z,9.00
2023-04-18T20:33:45.807Z,8.70
2023-04-18T20:36:14.041Z,8.90
2023-04-18T20:38:40.827Z,8.70
2023-04-18T20:41:10.668Z,9.00
2023-04-18T20:43:37.417Z,9.00
2023-04-18T20:46:04.133Z,8.70
2023-04-18T20:48:30.850Z,9.00
2023-04-18T20:50:57.428Z,8.90
2023-04-18T20:53:28.880Z,8.90
2023-04-18T20:55:55.505Z,8.90
2023-04-18T20:58:22.138Z,8.50
2023-04-18T21:00:48.987Z,8.70
2023-04-18T21:03:16.428Z,8.70
2023-04-18T21:05:43.933Z,8.70
2023-04-18T21:08:13.433Z,8.50
2023-04-18T21:10:40.294Z,8.70
2023-04-18T21:13:07.109Z,8.70
2023-04-18T21:15:35.197Z,8.90
2023-04-18T21:18:01.882Z,8.50
2023-04-18T21:20:28.627Z,8.10
2023-04-18T21:22:55.212Z,8.50
2023-04-18T21:25:21.853Z,8.50
2023-04-18T21:30:17.431Z,8.50
2023-04-18T21:32:44.176Z,7.50
2023-04-18T21:35:10.895Z,7.10
2023-04-18T21:37:37.661Z,8.50
2023-04-18T21:40:04.606Z,8.30
2023-04-18T21:42:31.233Z,8.60
2023-04-18T21:44:57.804Z,8.30
2023-04-18T21:54:46.651Z,8.00
2023-04-18T21:57:13.290Z,7.70
2023-04-18T21:59:39.874Z,7.80
2023-04-18T22:02:06.769Z,8.40
2023-04-18T22:04:34.707Z,7.50
2023-04-18T22:07:01.518Z,7.70
2023-04-18T22:09:29.436Z,7.80
2023-04-18T22:11:57.061Z,7.40
2023-04-18T22:14:24.809Z,7.60
2023-04-18T22:16:51.694Z,8.10
2023-04-18T22:19:19.206Z,7.40
2023-04-18T22:21:46.103Z,7.40
2023-04-18T22:24:12.883Z,7.60
2023-04-18T22:26:39.943Z,7.60
2023-04-18T22:29:06.578Z,7.50
2023-04-18T22:31:33.195Z,7.70
2023-04-18T22:33:59.795Z,7.50
2023-04-18T22:36:27.662Z,7.50
2023-04-18T22:38:54.362Z,7.60
2023-04-18T22:41:20.961Z,7.70
2023-04-18T22:43:47.553Z,7.50
2023-04-18T22:46:14.284Z,7.50
2023-04-18T22:48:40.911Z,7.20
2023-04-18T22:51:07.537Z,7.20
2023-04-18T22:53:34.201Z,6.80
2023-04-18T22:56:00.871Z,7.00
2023-04-18T22:58:27.465Z,7.10
2023-04-18T23:00:54.062Z,7.00
2023-04-18T23:03:20.840Z,7.10
2023-04-18T23:05:47.550Z,6.70
2023-04-18T23:08:14.195Z,7.10
2023-04-18T23:10:40.952Z,6.90
2023-04-18T23:13:07.562Z,6.70
2023-04-18T23:15:34.216Z,6.70
2023-04-18T23:18:00.953Z,6.90
2023-04-18T23:20:27.571Z,6.90
2023-04-18T23:22:55.394Z,7.10
2023-04-18T23:25:22.059Z,6.70
2023-04-18T23:27:48.731Z,6.70
2023-04-18T23:30:15.469Z,6.80
2023-04-18T23:35:10.488Z,6.80
2023-04-18T23:37:37.115Z,6.70
2023-04-18T23:40:06.604Z,7.50
2023-04-18T23:42:36.997Z,6.70
2023-04-18T23:45:04.077Z,6.80
2023-04-18T23:47:30.916Z,6.80
2023-04-18T23:49:57.573Z,6.80
2023-04-18T23:52:24.216Z,6.60
2023-04-18T23:54:50.837Z,6.60
2023-04-18T23:57:17.529Z,6.60
2023-04-18T23:59:44.137Z,6.40
